Time;durP1;ratioP1;P1;durP2;ratioP2;P2;SDS_P1;SDS_P2;PMS_P1;PMS_P2;Temp;Humidity;BMP_temperature;BMP_pressure;BME280_temperature;BME280_humidity;BME280_pressure;Samples;Min_cycle;Max_cycle;Signal;HPM_P1;HPM_P2
2021/09/02 00:00:19;;;;;;;10.43;9.43;;;10.80;99.90;;;11.90;60.33;94894.56;5006100;28;20210;-71
2021/09/02 00:02:48;;;;;;;10.67;9.67;;;11.10;99.90;;;11.88;60.54;94908.09;5008793;28;20666;-71
2021/09/02 00:05:14;;;;;;;10.77;9.67;;;10.70;99.90;;;11.82;60.29;94890.47;5006626;28;20183;-71
2021/09/02 00:07:40;;;;;;;12.97;9.50;;;10.70;99.90;;;11.78;60.74;94892.03;5004953;28;21108;-71
2021/09/02 00:10:06;;;;;;;10.60;9.27;;;10.60;99.90;;;11.83;60.62;94897.41;5005099;28;20193;-71
2021/09/02 00:12:34;;;;;;;11.33;9.30;;;10.70;99.90;;;11.86;60.75;94886.28;4973514;28;20193;-71
2021/09/02 00:15:00;;;;;;;9.90;8.87;;;10.80;99.90;;;11.76;61.12;94886.97;5016682;28;20238;-71
2021/09/02 00:17:25;;;;;;;10.53;7.90;;;11.00;99.90;;;11.70;60.99;94890.59;4987915;28;20265;-71
2021/09/02 00:19:54;;;;;;;8.97;8.07;;;10.80;99.90;;;11.69;61.27;94894.28;5005926;28;20284;-71
2021/09/02 00:22:20;;;;;;;11.47;8.70;;;10.40;99.90;;;11.57;61.21;94895.44;5007655;28;20225;-71
2021/09/02 00:24:46;;;;;;;10.67;9.57;;;10.30;99.90;;;11.41;61.18;94883.84;5005849;28;20232;-71
2021/09/02 00:27:12;;;;;;;11.57;10.47;;;10.10;99.90;;;11.27;61.25;94883.38;4996331;28;20251;-71
2021/09/02 00:29:42;;;;;;;11.53;10.40;;;10.00;99.90;;;11.16;61.17;94875.50;5005290;28;20208;-71
2021/09/02 00:32:08;;;;;;;11.83;10.63;;;10.10;99.90;;;11.18;61.51;94895.44;4989387;28;20239;-71
2021/09/02 00:34:34;;;;;;;12.87;10.37;;;10.10;99.90;;;11.19;61.50;94885.63;5007573;28;20220;-71
2021/09/02 00:37:00;;;;;;;12.17;9.80;;;10.00;99.90;;;11.15;61.69;94885.31;4972708;28;20192;-71
2021/09/02 00:39:26;;;;;;;11.80;10.60;;;10.10;99.90;;;11.14;61.77;94889.03;4997270;28;20204;-71
2021/09/02 00:41:54;;;;;;;13.53;11.37;;;10.20;99.90;;;11.19;61.39;94883.78;5005554;28;20193;-71
2021/09/02 00:44:45;;;;;;;11.43;10.27;;;10.40;99.90;;;11.20;61.80;94890.69;4989102;28;20212;-71
2021/09/02 00:47:24;;;;;;;11.70;10.60;;;10.00;99.90;;;11.17;62.09;94888.53;4985678;28;20196;-71
2021/09/02 00:49:56;;;;;;;12.10;10.30;;;10.00;99.90;;;11.10;61.76;94889.75;5001985;28;20190;-71
2021/09/02 00:52:30;;;;;;;12.53;11.23;;;10.00;99.90;;;11.00;62.30;94885.09;5005753;28;20193;-71
2021/09/02 00:55:03;;;;;;;12.40;11.10;;;9.80;99.90;;;10.91;62.15;94886.56;4998779;28;20248;-71
2021/09/02 00:57:32;;;;;;;14.97;11.57;;;9.50;99.90;;;10.86;62.02;94885.66;5010424;28;20185;-71
2021/09/02 01:00:14;;;;;;;12.27;11.07;;;9.50;99.90;;;10.93;62.14;94886.28;4985902;28;20273;-71
2021/09/02 01:02:49;;;;;;;12.33;10.63;;;10.10;99.90;;;10.88;62.18;94894.19;5005956;28;20276;-71
2021/09/02 01:05:20;;;;;;;10.50;9.50;;;9.00;99.90;;;10.88;62.59;94892.31;5017946;28;20650;-71
2021/09/02 01:07:47;;;;;;;9.73;8.70;;;9.90;99.90;;;10.85;62.52;94894.66;4995414;28;20197;-71
2021/09/02 01:10:13;;;;;;;10.13;8.97;;;9.80;99.90;;;10.80;62.39;94892.72;4989681;28;20582;-71
2021/09/02 01:12:41;;;;;;;11.60;10.40;;;;;;;10.78;62.40;94897.47;5003929;28;20615;-71
2021/09/02 01:15:22;;;;;;;11.97;10.73;;;10.40;99.90;;;10.81;62.52;94903.09;5003963;28;20280;-71
2021/09/02 01:17:53;;;;;;;11.67;10.47;;;9.80;99.90;;;10.76;63.07;94889.75;4990045;28;20281;-71
2021/09/02 01:20:23;;;;;;;11.67;9.57;;;10.00;99.90;;;10.77;62.86;94887.91;5000145;28;20194;-71
2021/09/02 01:22:52;;;;;;;10.57;9.47;;;9.90;99.90;;;10.71;62.88;94892.31;5000060;28;21029;-71
2021/09/02 01:25:25;;;;;;;11.60;9.20;;;9.80;99.90;;;10.64;62.97;94899.63;5000518;28;20216;-70
2021/09/02 01:28:06;;;;;;;10.63;9.13;;;9.10;99.90;;;10.59;63.07;94898.75;5004204;28;20203;-71
2021/09/02 01:30:37;;;;;;;12.23;9.60;;;9.20;99.90;;;10.58;62.88;94911.19;5007089;28;20603;-71
2021/09/02 01:33:04;;;;;;;14.53;9.90;;;9.70;99.90;;;10.51;63.23;94902.56;5004857;28;20216;-71
2021/09/02 01:35:32;;;;;;;9.80;8.27;;;9.70;99.90;;;10.47;63.15;94900.66;5004229;28;20243;-70
2021/09/02 01:38:11;;;;;;;10.77;9.63;;;9.50;99.90;;;10.49;63.23;94909.16;4999211;28;20204;-71
2021/09/02 01:40:41;;;;;;;13.03;10.47;;;8.40;99.90;;;10.46;63.25;94905.16;4986602;28;20198;-71
2021/09/02 01:43:11;;;;;;;12.87;10.47;;;8.40;99.90;;;10.44;63.49;94901.16;4994130;28;20188;-71
2021/09/02 01:45:41;;;;;;;13.27;11.43;;;8.40;99.90;;;10.43;63.63;94899.53;5008380;28;20226;-71
2021/09/02 01:48:07;;;;;;;16.37;13.50;;;9.20;99.90;;;10.38;63.86;94886.16;4990415;28;20204;-71
2021/09/02 01:50:37;;;;;;;13.53;11.37;;;9.10;99.90;;;10.39;63.54;94893.91;5005556;28;20703;-71
2021/09/02 01:53:07;;;;;;;17.70;10.73;;;9.10;99.90;;;10.43;64.09;94888.94;4991373;28;20220;-71
2021/09/02 01:55:34;;;;;;;11.43;9.63;;;9.40;99.90;;;10.41;63.94;94891.03;5006318;28;20705;-71
2021/09/02 01:58:00;;;;;;;12.33;9.70;;;9.00;99.90;;;10.38;63.88;94880.88;5003577;28;20186;-71
2021/09/02 02:00:26;;;;;;;9.97;8.90;;;9.00;99.90;;;10.35;64.10;94884.81;5009148;28;20217;-71
2021/09/02 02:02:52;;;;;;;9.30;8.40;;;9.00;99.90;;;10.25;64.12;94880.13;4985219;28;20286;-71
2021/09/02 02:05:20;;;;;;;10.47;9.37;;;9.10;99.90;;;10.26;64.10;94886.25;5008014;28;20187;-70
2021/09/02 02:07:46;;;;;;;11.23;10.00;;;9.00;99.90;;;10.22;64.05;94885.09;5007267;28;20322;-70
2021/09/02 02:10:17;;;;;;;11.50;10.27;;;9.10;99.90;;;10.21;64.57;94891.44;5008632;28;20208;-70
2021/09/02 02:12:45;;;;;;;13.77;12.30;;;12.20;99.90;;;10.21;64.36;94894.91;5004055;28;20194;-71
2021/09/02 02:15:14;;;;;;;16.07;11.63;;;9.90;99.90;;;10.19;64.35;94893.53;5007902;28;20198;-71
2021/09/02 02:17:42;;;;;;;12.20;10.90;;;9.70;99.90;;;10.22;64.39;94887.75;5005429;28;20664;-71
2021/09/02 02:20:14;;;;;;;11.90;10.60;;;9.30;99.90;;;10.22;64.49;94885.91;4990653;28;20218;-71
2021/09/02 02:22:42;;;;;;;13.70;10.30;;;9.00;99.90;;;10.19;64.50;94875.00;4977026;28;20744;-70
2021/09/02 02:25:11;;;;;;;10.97;9.67;;;8.90;99.90;;;10.17;64.44;94887.69;5009144;28;20737;-70
2021/09/02 02:27:37;;;;;;;12.97;10.23;;;8.90;99.90;;;10.16;64.86;94880.75;5006965;28;20252;-71
2021/09/02 02:30:06;;;;;;;12.47;11.17;;;8.80;99.90;;;10.13;64.72;94884.66;4997212;28;20200;-71
2021/09/02 02:32:32;;;;;;;12.07;10.77;;;9.00;99.90;;;10.16;64.86;94884.22;5006981;28;20275;-71
2021/09/02 02:34:58;;;;;;;12.77;10.57;;;9.20;99.90;;;10.10;65.09;94885.16;4999723;28;20209;-70
2021/09/02 02:37:25;;;;;;;9.77;8.70;;;;;;;10.04;64.87;94885.28;5006602;28;20194;-71
2021/09/02 02:39:51;;;;;;;13.37;8.90;;;9.00;99.90;;;10.01;64.97;94873.31;4983663;28;20196;-71
2021/09/02 02:42:17;;;;;;;12.03;9.70;;;;;;;10.00;64.95;94870.91;5009024;28;20543;-70
2021/09/02 02:44:44;;;;;;;10.43;9.33;;;9.20;99.90;;;9.98;65.08;94865.03;5005608;28;20204;-70
2021/09/02 02:47:10;;;;;;;12.03;10.20;;;8.90;99.90;;;10.01;65.08;94864.53;5004829;28;20200;-70
2021/09/02 02:49:39;;;;;;;10.10;9.10;;;8.00;99.90;;;9.96;65.38;94862.63;5000836;28;20623;-71
2021/09/02 02:52:08;;;;;;;13.57;10.43;;;8.80;99.90;;;9.91;65.47;94864.34;5001282;28;20187;-71
2021/09/02 02:54:35;;;;;;;10.90;9.50;;;9.00;99.90;;;9.92;65.35;94861.50;5003645;28;20223;-70
2021/09/02 02:57:01;;;;;;;10.90;9.80;;;8.00;99.90;;;9.81;65.26;94857.03;5010275;28;20279;-71
2021/09/02 02:59:27;;;;;;;11.67;10.50;;;9.20;99.90;;;9.75;65.47;94861.44;4991854;28;20286;-71
2021/09/02 03:01:53;;;;;;;11.63;10.40;;;8.70;99.90;;;9.67;65.45;94855.72;4990421;28;20198;-71
2021/09/02 03:04:19;;;;;;;12.83;11.50;;;7.90;99.90;;;9.57;65.94;94848.34;5007590;28;20187;-71
2021/09/02 03:06:47;;;;;;;15.00;13.40;;;8.90;99.90;;;9.66;65.42;94864.69;5004988;28;20238;-71
2021/09/02 03:09:13;;;;;;;16.43;14.03;;;8.50;99.90;;;9.72;65.58;94853.97;5007235;28;20201;-71
2021/09/02 03:11:42;;;;;;;19.10;14.90;;;8.20;99.90;;;9.76;66.01;94851.66;4994025;28;20557;-70
2021/09/02 03:14:08;;;;;;;16.37;14.23;;;8.70;99.90;;;9.74;65.69;94859.00;5006212;28;20212;-70
2021/09/02 03:16:34;;;;;;;15.60;13.90;;;8.90;99.90;;;9.75;65.96;94865.91;5006983;28;20201;-71
2021/09/02 03:19:02;;;;;;;16.90;13.33;;;;;;;9.73;65.93;94865.38;5008670;28;20764;-71
2021/09/02 03:21:33;;;;;;;14.00;11.93;;;8.90;99.90;;;9.74;66.30;94864.31;4990901;28;20296;-70
2021/09/02 03:23:59;;;;;;;13.03;11.73;;;8.70;99.90;;;9.71;65.94;94860.28;5008399;28;20222;-70
2021/09/02 03:26:25;;;;;;;15.33;13.57;;;8.90;99.90;;;9.68;66.45;94855.47;5004457;28;20689;-70
2021/09/02 03:28:56;;;;;;;17.27;14.00;;;8.50;99.90;;;9.66;66.03;94859.41;5006589;28;20635;-70
2021/09/02 03:31:24;;;;;;;18.90;15.37;;;8.40;99.90;;;9.64;66.25;94851.69;5005268;28;20220;-70
2021/09/02 03:33:50;;;;;;;21.47;16.27;;;;;;;9.71;66.36;94849.69;5007068;28;20206;-70
2021/09/02 03:36:19;;;;;;;15.90;14.10;;;8.50;99.90;;;9.63;66.34;94858.03;5005372;28;20193;-70
2021/09/02 03:38:45;;;;;;;16.83;13.37;;;8.80;99.90;;;9.61;66.81;94852.16;5003596;28;20196;-70
2021/09/02 03:41:11;;;;;;;15.83;14.17;;;8.60;99.90;;;9.51;66.84;94854.59;5006082;28;20196;-70
2021/09/02 03:43:37;;;;;;;16.87;13.67;;;8.60;99.90;;;9.54;66.95;94854.13;5003964;28;20298;-71
2021/09/02 03:46:05;;;;;;;18.60;13.47;;;8.50;99.90;;;9.59;66.80;94856.88;5006259;28;20194;-71
2021/09/02 03:48:36;;;;;;;14.37;12.23;;;8.60;99.90;;;9.62;66.70;94858.25;4992160;28;20196;-70
2021/09/02 03:51:02;;;;;;;19.43;14.40;;;8.40;99.90;;;9.56;66.94;94859.19;5006749;28;20597;-71
2021/09/02 03:53:28;;;;;;;17.53;13.17;;;8.70;99.90;;;9.59;66.80;94862.19;4986348;28;20224;-71
2021/09/02 03:55:54;;;;;;;14.23;11.63;;;8.30;99.90;;;9.56;67.19;94856.53;5004855;28;20250;-70
2021/09/02 03:58:20;;;;;;;17.13;11.70;;;8.50;99.90;;;9.49;66.93;94855.88;5001782;28;20521;-70
2021/09/02 04:00:48;;;;;;;13.47;10.67;;;8.30;99.90;;;9.45;67.18;94852.88;5004911;28;20219;-71
2021/09/02 04:03:14;;;;;;;12.77;10.03;;;7.90;99.90;;;9.47;67.37;94857.97;5005224;28;20197;-70
2021/09/02 04:05:43;;;;;;;11.13;9.93;;;8.60;99.90;;;9.49;67.12;94864.63;5007390;28;20702;-70
2021/09/02 04:08:11;;;;;;;13.30;11.87;;;8.30;99.90;;;9.43;66.96;94862.91;5001433;28;20200;-70
2021/09/02 04:10:37;;;;;;;19.07;12.83;;;8.40;99.90;;;9.37;67.07;94860.41;5012313;28;20296;-71
2021/09/02 04:13:03;;;;;;;13.47;11.43;;;;;;;9.40;67.36;94862.56;5022288;28;20289;-71
2021/09/02 04:15:29;;;;;;;13.57;12.10;;;8.30;99.90;;;9.33;67.49;94861.88;5005040;28;20203;-70
2021/09/02 04:17:55;;;;;;;13.90;12.30;;;8.20;99.90;;;9.27;67.33;94869.69;5002683;28;20199;-70
2021/09/02 04:20:21;;;;;;;12.57;9.97;;;7.90;99.90;;;9.29;67.22;94861.56;4996051;28;20196;-70
2021/09/02 04:22:49;;;;;;;13.97;11.43;;;8.40;99.90;;;9.30;67.43;94865.00;4990164;28;20295;-70
2021/09/02 04:25:18;;;;;;;12.37;10.80;;;8.00;99.90;;;9.33;67.84;94865.34;5001588;28;20207;-71
2021/09/02 04:27:44;;;;;;;15.17;12.37;;;7.90;99.90;;;9.36;67.81;94848.19;4990354;28;20287;-71
2021/09/02 04:30:13;;;;;;;13.27;11.33;;;7.50;99.90;;;9.30;67.96;94855.19;4986150;28;20207;-70
2021/09/02 04:32:42;;;;;;;12.67;11.07;;;8.60;99.90;;;9.25;67.45;94865.69;5006160;28;20223;-71
2021/09/02 04:35:10;;;;;;;13.43;11.03;;;8.10;99.90;;;9.23;67.82;94868.56;5001614;28;20281;-71
2021/09/02 04:37:38;;;;;;;13.13;11.17;;;8.20;99.90;;;9.23;67.67;94865.91;4988606;28;20198;-71
2021/09/02 04:40:08;;;;;;;12.37;10.87;;;8.20;99.90;;;9.23;67.54;94868.56;5007522;28;20257;-71
2021/09/02 04:42:36;;;;;;;13.60;11.80;;;8.10;99.90;;;9.27;67.88;94874.19;4988587;28;20190;-69
2021/09/02 04:45:08;;;;;;;15.17;12.83;;;8.70;99.90;;;9.22;68.16;94877.53;4988061;28;20200;-71
2021/09/02 04:47:34;;;;;;;14.30;12.47;;;9.20;99.90;;;9.27;68.21;94880.28;5001449;28;20543;-72
2021/09/02 04:50:00;;;;;;;14.80;11.77;;;8.20;99.90;;;9.29;68.10;94877.41;5005400;28;20207;-72
2021/09/02 04:52:26;;;;;;;16.47;11.20;;;8.30;99.90;;;9.32;68.19;94881.44;5004127;28;20198;-72
2021/09/02 04:54:52;;;;;;;13.60;11.77;;;8.40;99.90;;;9.33;67.90;94872.47;4971724;28;20219;-71
2021/09/02 04:57:19;;;;;;;15.80;13.17;;;7.90;99.90;;;9.29;68.03;94874.78;4970414;28;20224;-71
2021/09/02 04:59:46;;;;;;;14.10;12.50;;;8.40;99.90;;;9.35;68.41;94879.13;4989433;28;20196;-72
2021/09/02 05:02:15;;;;;;;14.93;13.03;;;8.30;99.90;;;9.35;68.06;94873.03;5001031;28;20188;-71
2021/09/02 05:04:43;;;;;;;15.90;14.20;;;8.20;99.90;;;9.30;68.04;94870.28;5036399;28;20205;-72
2021/09/02 05:07:10;;;;;;;18.53;14.60;;;7.60;99.90;;;9.36;68.48;94867.53;5017974;28;20211;-71
2021/09/02 05:09:36;;;;;;;21.93;16.03;;;8.40;99.90;;;9.42;68.58;94881.66;4987234;28;20201;-71
2021/09/02 05:12:01;;;;;;;19.50;15.30;;;8.40;99.90;;;9.47;68.71;94879.91;5003386;28;20214;-71
2021/09/02 05:14:27;;;;;;;18.27;15.17;;;8.20;99.90;;;9.51;68.56;94878.41;4999723;28;20223;-72
2021/09/02 05:16:53;;;;;;;20.23;15.47;;;8.10;99.90;;;9.54;68.95;94877.13;5009598;28;20709;-71
2021/09/02 05:19:19;;;;;;;17.53;14.63;;;8.70;99.90;;;9.60;68.69;94871.69;4994691;28;20203;-72
2021/09/02 05:21:47;;;;;;;16.27;13.47;;;;;;;9.64;68.63;94880.78;5009966;28;20199;-71
2021/09/02 05:24:17;;;;;;;17.77;15.30;;;8.50;99.90;;;9.71;69.40;94885.94;5008933;28;20197;-71
2021/09/02 05:26:43;;;;;;;20.27;14.17;;;7.80;99.90;;;9.74;68.67;94877.53;5013416;28;20199;-70
2021/09/02 05:29:09;;;;;;;17.23;14.00;;;9.50;99.90;;;9.72;69.06;94879.63;5010693;28;20188;-70
2021/09/02 05:31:37;;;;;;;19.07;15.53;;;8.60;99.90;;;9.76;68.80;94886.06;5012073;28;20215;-70
2021/09/02 05:34:06;;;;;;;20.70;16.13;;;8.60;99.90;;;9.84;69.17;94885.69;5008556;28;20217;-70
2021/09/02 05:36:34;;;;;;;21.40;16.87;;;8.60;99.90;;;9.89;69.01;94885.78;5011925;28;20200;-70
2021/09/02 05:39:02;;;;;;;21.57;15.70;;;8.90;99.90;;;9.94;69.20;94877.94;5008104;28;20190;-72
2021/09/02 05:41:31;;;;;;;21.53;16.90;;;8.70;99.90;;;10.04;69.46;94893.22;5009323;28;20642;-72
2021/09/02 05:44:02;;;;;;;20.03;14.60;;;8.80;99.90;;;10.17;69.33;94887.69;5010085;28;20743;-72
2021/09/02 05:46:28;;;;;;;17.10;13.40;;;9.10;99.90;;;10.32;69.40;94887.13;5001110;28;20190;-72
2021/09/02 05:48:54;;;;;;;19.53;12.87;;;9.10;99.90;;;10.47;69.52;94884.75;5008077;28;20206;-73
2021/09/02 05:51:20;;;;;;;19.73;14.10;;;9.30;99.90;;;10.48;69.65;94873.91;5009149;28;20277;-73
2021/09/02 05:53:49;;;;;;;18.47;13.07;;;9.60;99.90;;;10.63;69.71;94890.06;5007551;28;20234;-71
2021/09/02 05:56:15;;;;;;;15.77;13.13;;;;;;;10.63;69.60;94876.00;5007117;28;20189;-71
2021/09/02 05:58:41;;;;;;;17.07;13.33;;;9.80;99.90;;;10.64;69.63;94886.38;5010436;28;20196;-72
2021/09/02 06:01:07;;;;;;;17.40;13.03;;;;;;;10.86;69.87;94890.97;5007538;28;20221;-71
2021/09/02 06:03:33;;;;;;;20.53;11.90;;;10.50;99.90;;;11.01;70.05;94894.63;5008902;28;20188;-72
2021/09/02 06:05:59;;;;;;;14.13;12.63;;;10.00;99.90;;;11.14;69.87;94883.72;5003988;28;21083;-72
2021/09/02 06:08:25;;;;;;;17.17;13.50;;;10.10;99.90;;;11.24;70.14;94880.41;5005541;28;20684;-71
2021/09/02 06:10:51;;;;;;;17.77;14.30;;;10.60;99.90;;;11.43;70.10;94891.53;5010519;28;20205;-71
2021/09/02 06:13:17;;;;;;;17.20;13.53;;;10.50;99.90;;;11.58;70.40;94889.91;5007429;28;20231;-70
2021/09/02 06:15:44;;;;;;;16.87;13.37;;;10.40;99.90;;;11.71;70.36;94891.41;5023476;28;20926;-70
2021/09/02 06:18:12;;;;;;;18.93;12.93;;;10.50;99.90;;;11.92;70.53;94887.94;5010978;28;20200;-71
2021/09/02 06:20:38;;;;;;;16.10;13.10;;;10.90;99.90;;;12.21;70.07;94899.97;5010341;28;20281;-71
2021/09/02 06:23:04;;;;;;;13.27;11.80;;;11.40;99.90;;;12.55;70.58;94913.88;5005494;28;20295;-70
2021/09/02 06:25:30;;;;;;;12.37;11.07;;;12.30;99.90;;;13.90;70.61;94949.75;5010109;28;20290;-71
2021/09/02 06:27:56;;;;;;;9.73;8.27;;;12.40;99.90;;;15.94;70.66;94971.22;5036470;28;20240;-73
2021/09/02 06:30:22;;;;;;;8.27;7.37;;;14.40;99.90;;;17.98;70.97;94920.38;5007329;28;20185;-73
2021/09/02 06:32:47;;;;;;;11.20;7.07;;;16.30;99.90;;;19.90;71.04;94952.56;5005862;28;20248;-72
2021/09/02 06:35:16;;;;;;;7.03;6.33;;;18.10;99.90;;;21.66;70.68;94963.41;5007807;28;20231;-72
2021/09/02 06:37:41;;;;;;;6.80;6.10;;;20.20;99.90;;;22.71;70.36;94892.28;5007335;28;20204;-71
2021/09/02 06:40:08;;;;;;;6.97;5.73;;;21.80;99.90;;;24.23;70.21;94979.47;5007470;28;20722;-71
2021/09/02 06:42:39;;;;;;;8.57;6.03;;;25.70;99.90;;;25.61;69.69;94896.13;5005182;28;20202;-70
2021/09/02 06:45:08;;;;;;;6.37;5.77;;;25.00;99.90;;;25.88;69.34;94935.50;5004247;28;20205;-70
2021/09/02 06:47:38;;;;;;;6.63;6.03;;;25.50;99.90;;;25.77;68.96;94844.69;5036104;28;20208;-70
2021/09/02 06:50:05;;;;;;;7.13;6.40;;;25.90;99.90;;;25.09;68.67;94874.03;4990075;28;20745;-70
2021/09/02 06:52:31;;;;;;;7.13;6.10;;;25.50;99.90;;;24.74;68.39;94849.09;5023252;28;20646;-70
2021/09/02 06:54:58;;;;;;;8.20;6.00;;;25.30;99.90;;;24.89;68.04;94972.50;5005735;28;20221;-71
2021/09/02 06:57:27;;;;;;;8.33;6.47;;;25.20;99.90;;;25.28;67.76;94904.22;5005683;28;20204;-70
2021/09/02 06:59:56;;;;;;;7.10;6.40;;;25.50;99.90;;;26.82;67.16;94979.88;5001162;28;20665;-70
2021/09/02 07:02:22;;;;;;;7.33;6.17;;;27.10;99.90;;;26.60;67.19;94852.44;5006953;28;21260;-71
2021/09/02 07:04:48;;;;;;;7.50;5.73;;;27.20;98.60;;;28.04;66.71;94897.47;5021823;28;20188;-70
2021/09/02 07:07:14;;;;;;;6.97;6.37;;;28.60;97.30;;;27.34;66.34;94922.72;5008710;28;20240;-70
2021/09/02 07:09:40;;;;;;;5.97;5.40;;;28.30;96.90;;;28.17;65.42;94906.38;5005453;28;20686;-70
2021/09/02 07:12:06;;;;;;;7.20;6.50;;;29.30;94.40;;;28.25;65.21;94976.34;5004170;28;20285;-70
2021/09/02 07:14:32;;;;;;;6.37;5.80;;;29.40;94.40;;;29.08;64.64;94958.91;5004190;28;20708;-70
2021/09/02 07:16:58;;;;;;;6.87;6.10;;;30.20;92.00;;;29.82;64.29;94902.34;4972437;28;20220;-71
2021/09/02 07:19:26;;;;;;;6.70;6.07;;;31.00;90.60;;;29.61;64.16;94781.69;4988323;28;20251;-71
2021/09/02 07:21:52;;;;;;;8.13;6.27;;;30.30;94.40;;;29.07;63.91;94935.50;4988155;28;20715;-71
2021/09/02 07:24:21;;;;;;;6.57;5.67;;;31.50;92.30;;;29.20;63.30;94833.19;5005571;28;20672;-70
2021/09/02 07:26:47;;;;;;;6.37;5.77;;;32.20;91.40;;;30.95;62.53;94923.50;5004024;28;20248;-71
2021/09/02 07:29:14;;;;;;;6.43;5.87;;;33.00;90.00;;;32.12;61.92;95024.66;5003044;28;20225;-71
2021/09/02 07:31:40;;;;;;;6.03;5.53;;;32.90;80.20;;;32.21;61.48;94881.66;4989932;28;20244;-71
2021/09/02 07:34:09;;;;;;;8.23;6.00;;;33.50;78.70;;;32.67;60.81;94951.53;4971484;28;20249;-71
2021/09/02 07:36:36;;;;;;;6.63;6.03;;;34.20;74.90;;;33.11;60.04;94913.03;5034037;28;20244;-71
2021/09/02 07:39:04;;;;;;;6.20;5.70;;;34.90;72.90;;;33.69;60.25;94925.94;4988112;28;20188;-71
2021/09/02 07:41:30;;;;;;;6.82;6.22;;;35.30;70.60;;;34.57;59.27;94936.44;4986248;28;21183;-72
2021/09/02 07:43:59;;;;;;;7.90;6.20;;;35.80;68.80;;;34.87;58.81;94885.31;5006538;28;20599;-72
2021/09/02 07:46:25;;;;;;;6.50;5.90;;;36.10;68.20;;;31.93;58.82;94799.84;5004164;28;20937;-71
2021/09/02 07:48:53;;;;;;;6.38;5.78;;;34.20;70.00;;;30.93;58.26;94836.22;5008101;28;20228;-71
2021/09/02 07:51:20;;;;;;;7.57;6.20;;;33.30;71.90;;;30.74;57.73;94882.09;5006276;28;20197;-70
2021/09/02 07:53:46;;;;;;;7.40;6.13;;;32.90;74.70;;;29.68;57.74;94831.00;4990703;28;20278;-70
2021/09/02 07:56:12;;;;;;;7.27;5.83;;;31.90;75.60;;;28.50;57.38;94818.75;5005068;28;20652;-71
2021/09/02 07:58:39;;;;;;;7.00;6.10;;;30.70;77.70;;;29.68;56.59;94970.41;4988369;28;20189;-69
2021/09/02 08:01:10;;;;;;;6.57;5.93;;;31.40;77.30;;;29.04;56.85;94841.41;4974247;28;20219;-71
2021/09/02 08:03:37;;;;;;;6.13;5.63;;;30.80;78.10;;;30.42;56.18;94978.16;4998665;28;20202;-70
2021/09/02 08:06:06;;;;;;;5.90;5.40;;;31.90;77.30;;;31.64;55.51;94937.81;5000339;28;20214;-69
2021/09/02 08:08:32;;;;;;;7.13;5.80;;;33.40;73.80;;;31.84;55.34;94950.22;4967043;28;20216;-71
2021/09/02 08:10:59;;;;;;;6.68;6.07;;;33.80;72.00;;;31.86;55.22;94835.44;4967697;28;20206;-71
2021/09/02 08:13:25;;;;;;;6.80;6.10;;;33.60;71.00;;;32.05;54.97;94892.06;5001112;28;20388;-70
2021/09/02 08:15:52;;;;;;;6.13;5.53;;;34.10;70.70;;;33.78;54.37;95039.97;4984412;28;20189;-71
2021/09/02 08:18:18;;;;;;;8.13;5.57;;;35.40;68.90;;;34.48;54.18;94874.25;4981376;28;20376;-70
2021/09/02 08:20:44;;;;;;;5.65;5.20;;;36.20;67.00;;;34.53;53.29;94928.16;4983715;28;20293;-70
2021/09/02 08:23:10;;;;;;;6.20;5.32;;;36.60;66.20;;;35.24;52.71;94864.78;4967779;28;20193;-71
2021/09/02 08:25:36;;;;;;;5.68;5.10;;;37.40;63.60;;;34.92;52.80;94815.97;4981492;28;20194;-71
2021/09/02 08:28:02;;;;;;;6.45;5.95;;;36.80;63.20;;;34.52;52.03;94872.28;4982183;28;20196;-70
2021/09/02 08:30:29;;;;;;;5.70;5.20;;;36.50;64.20;;;35.80;51.70;94856.31;4984722;28;20217;-71
2021/09/02 08:33:00;;;;;;;5.78;5.25;;;37.70;63.50;;;35.08;51.17;94806.50;4983973;28;20218;-71
2021/09/02 08:35:36;;;;;;;5.60;5.10;;;37.20;62.20;;;33.53;51.21;94830.00;4968547;28;20210;-72
2021/09/02 08:38:06;;;;;;;4.97;4.47;;;36.20;63.20;;;33.76;50.61;94775.44;5002372;28;20687;-69
2021/09/02 08:40:38;;;;;;;5.30;4.80;;;36.30;62.40;;;34.51;50.43;94925.81;5018019;28;20204;-69
2021/09/02 08:43:07;;;;;;;5.30;4.38;;;36.90;62.60;;;33.86;50.12;94916.97;4989141;28;20794;-70
2021/09/02 08:45:33;;;;;;;6.88;4.60;;;36.00;64.10;;;33.77;49.59;94977.09;5031454;28;20187;-71
2021/09/02 08:48:02;;;;;;;4.82;4.35;;;37.10;73.90;;;36.37;48.69;95008.69;5004771;28;20652;-70
2021/09/02 08:50:36;;;;;;;4.50;4.10;;;38.20;62.60;;;36.89;48.71;94896.25;4986768;28;20221;-70
2021/09/02 08:53:03;;;;;;;4.90;4.60;;;37.60;68.40;;;35.16;48.34;94905.34;4985873;28;20193;-70
2021/09/02 08:55:30;;;;;;;5.22;4.82;;;37.80;60.70;;;34.03;47.90;94839.19;5000867;28;20189;-70
2021/09/02 08:57:57;;;;;;;4.68;4.35;;;36.80;62.20;;;33.15;47.75;94836.88;5001811;28;20186;-70
2021/09/02 09:00:25;;;;;;;5.10;4.70;;;35.60;62.50;;;33.37;47.37;94995.31;5001892;28;20197;-70
2021/09/02 09:03:07;;;;;;;4.43;3.92;;;35.50;63.30;;;34.20;46.76;94854.16;5005342;28;20188;-69
2021/09/02 09:05:37;;;;;;;5.85;4.63;;;36.50;61.60;;;35.14;46.52;94981.41;5020388;28;20192;-69
2021/09/02 09:08:11;;;;;;;4.97;4.32;;;37.20;61.50;;;34.86;46.55;94885.69;5005073;28;20605;-71
2021/09/02 09:10:42;;;;;;;4.72;4.32;;;37.40;60.50;;;35.88;45.99;94857.06;5021147;28;20188;-71
2021/09/02 09:13:09;;;;;;;5.05;4.65;;;38.90;59.40;;;35.47;45.70;94895.44;5004515;28;20181;-70
2021/09/02 09:15:44;;;;;;;5.20;4.80;;;38.80;57.90;;;36.25;45.59;95006.41;4988664;28;20220;-70
2021/09/02 09:18:21;;;;;;;4.97;4.45;;;39.30;58.20;;;37.59;44.70;94934.75;4986437;28;20185;-70
2021/09/02 09:21:09;;;;;;;4.65;4.25;;;40.70;55.60;;;37.75;44.46;95029.88;5016240;28;20287;-70
2021/09/02 09:23:54;;;;;;;4.88;4.47;;;40.80;55.00;;;37.56;44.21;94936.34;5003651;28;20192;-70
2021/09/02 09:26:24;;;;;;;4.70;4.30;;;40.90;55.30;;;37.25;44.61;94747.34;5003638;28;20854;-69
2021/09/02 09:28:52;;;;;;;4.57;4.28;;;40.70;55.10;;;37.07;43.87;94873.22;4988793;28;20193;-72
2021/09/02 09:31:36;;;;;;;4.45;4.13;;;40.40;55.30;;;37.28;43.14;94983.63;5005144;28;20229;-70
2021/09/02 09:34:08;;;;;;;4.90;4.50;;;40.80;55.30;;;37.52;42.84;94782.59;5000145;28;21292;-71
2021/09/02 09:36:37;;;;;;;4.93;4.53;;;41.20;54.50;;;38.69;42.56;94900.84;5002907;28;20196;-71
2021/09/02 09:39:16;;;;;;;5.50;5.10;;;41.70;52.50;;;37.44;42.35;94817.88;5003580;28;20248;-71
2021/09/02 09:41:47;;;;;;;6.00;5.40;;;40.70;54.70;;;37.98;41.60;95009.88;5001162;28;20224;-71
2021/09/02 09:44:28;;;;;;;6.47;5.72;;;40.90;54.50;;;38.30;41.21;94935.47;5002009;28;20212;-72
2021/09/02 09:47:19;;;;;;;6.10;5.55;;;41.50;53.20;;;36.70;41.34;94885.75;4988635;28;20193;-70
2021/09/02 09:50:00;;;;;;;5.57;5.18;;;39.80;54.60;;;36.34;41.37;94953.47;4943287;28;20203;-70
2021/09/02 09:52:41;;;;;;;6.03;5.53;;;39.40;57.50;;;36.47;40.52;94839.31;4980280;28;20218;-70
2021/09/02 09:55:07;;;;;;;7.00;6.38;;;39.80;56.50;;;35.71;40.77;94831.13;4963188;28;20272;-70
2021/09/02 09:57:34;;;;;;;6.25;5.70;;;38.70;57.50;;;36.20;40.67;94763.00;4963396;28;20690;-69
2021/09/02 10:00:05;;;;;;;6.07;5.60;;;39.20;56.70;;;36.69;40.32;94920.13;4947937;28;20222;-71
2021/09/02 10:02:35;;;;;;;6.70;6.10;;;39.60;56.00;;;35.73;40.27;94756.19;4948770;28;20285;-69
2021/09/02 10:05:05;;;;;;;6.38;5.78;;;38.80;57.10;;;35.89;39.68;94930.41;4951079;28;20413;-72
2021/09/02 10:07:34;;;;;;;6.15;5.60;;;38.60;57.20;;;36.92;39.56;94815.25;4950371;28;20667;-71
2021/09/02 10:10:01;;;;;;;7.28;5.70;;;39.50;57.20;;;36.20;39.56;94934.25;4983711;28;20206;-71
2021/09/02 10:12:34;;;;;;;7.45;5.82;;;38.90;58.30;;;35.43;39.15;94828.44;4965688;28;20741;-71
2021/09/02 10:15:10;;;;;;;6.35;5.57;;;39.60;66.10;;;37.09;38.87;94899.25;4948970;28;20227;-72
2021/09/02 10:17:38;;;;;;;6.57;6.07;;;40.60;64.70;;;36.79;39.13;94733.25;4948903;28;20201;-69
2021/09/02 10:20:20;;;;;;;6.20;5.70;;;41.10;62.20;;;37.68;38.97;94818.75;4965034;28;20729;-69
2021/09/02 10:22:54;;;;;;;5.85;5.32;;;40.60;55.10;;;36.80;38.50;94850.94;4980822;28;20200;-69
2021/09/02 10:28:01;;;;;;;6.00;5.28;;;39.70;54.40;;;36.46;37.83;94890.25;5007442;28;20197;-69